Time;durP1;ratioP1;P1;durP2;ratioP2;P2;SDS_P1;SDS_P2;PMS_P1;PMS_P2;Temp;Humidity;BMP_temperature;BMP_pressure;BME280_temperature;BME280_humidity;BME280_pressure;Samples;Min_cycle;Max_cycle;Signal;HPM_P1;HPM_P2
2022/10/07 00:00:02;;;;;;;1.97;1.87;;;;;;;-143.84;67.68;45098.56;5112092;28;20507;-75
2022/10/07 00:02:29;;;;;;;2.50;2.30;;;;;;;-143.84;67.73;45111.91;5111769;28;20475;-75
2022/10/07 00:04:58;;;;;;;2.33;2.20;;;;;;;-143.84;67.97;45108.09;5111720;28;20442;-75
2022/10/07 00:07:25;;;;;;;2.83;2.60;;;;;;;-143.84;68.07;45085.25;5111861;28;21009;-75
2022/10/07 00:09:52;;;;;;;4.60;2.20;;;;;;;-143.84;68.07;45087.16;5111805;28;20456;-75
2022/10/07 00:12:19;;;;;;;6.20;2.20;;;;;;;-143.84;68.41;45100.47;5112034;28;20510;-75
2022/10/07 00:14:46;;;;;;;3.00;2.43;;;;;;;-143.84;68.33;45108.09;5111575;28;20498;-75
2022/10/07 00:17:13;;;;;;;3.00;2.70;;;;;;;-143.84;68.24;45094.78;5111639;28;20497;-75
2022/10/07 00:19:41;;;;;;;2.87;2.20;;;;;;;-143.84;68.35;45079.53;5111759;28;20552;-75
2022/10/07 00:22:09;;;;;;;2.97;2.77;;;;;;;-143.84;68.32;45113.81;5111783;28;20492;-75
2022/10/07 00:24:37;;;;;;;7.23;2.30;;;;;;;-143.84;68.46;45125.22;5111698;28;20446;-75
2022/10/07 00:27:04;;;;;;;2.67;2.50;;;;;;;-143.84;68.48;45094.78;5111018;28;20437;-75
2022/10/07 00:29:31;;;;;;;2.10;2.00;;;;;;;-143.84;68.17;45110.00;5111513;28;20465;-75
2022/10/07 00:31:58;;;;;;;2.10;2.00;;;;;;;-143.84;68.17;45079.53;5111362;28;20492;-75
2022/10/07 00:34:26;;;;;;;2.60;2.40;;;;;;;-143.84;68.29;45094.78;5111190;28;20989;-75
2022/10/07 00:36:53;;;;;;;2.47;2.23;;;;;;;-143.84;68.58;45098.56;5111477;28;20434;-75
2022/10/07 00:39:21;;;;;;;3.70;2.50;;;;;;;-143.84;68.83;45111.91;5111244;28;20940;-75
2022/10/07 00:41:50;;;;;;;5.27;2.80;;;;;;;-143.84;69.23;45106.19;5111374;28;20443;-75
2022/10/07 00:44:39;;;;;;;2.37;2.27;;;;;;;-143.84;69.49;45094.78;5111120;28;20517;-75
2022/10/07 00:47:12;;;;;;;2.37;2.13;;;;;;;-143.84;69.86;45140.47;5110897;28;20436;-75
2022/10/07 00:49:43;;;;;;;5.63;1.80;;;;;;;-143.84;70.12;45108.09;5111196;28;20446;-75
2022/10/07 00:52:13;;;;;;;2.93;2.33;;;;;;;-143.84;70.39;45100.47;5110801;28;20446;-75
2022/10/07 00:54:42;;;;;;;8.70;2.70;;;;;;;-143.84;70.26;45094.78;5110750;28;20437;-75
2022/10/07 00:57:09;;;;;;;3.63;2.70;;;;;;;-143.84;70.55;45110.00;5110925;28;20436;-75
2022/10/07 00:59:39;;;;;;;4.17;2.10;;;;;;;-143.84;70.72;45127.13;5111165;28;20509;-75
2022/10/07 01:02:07;;;;;;;2.33;2.13;;;;;;;-143.84;70.45;45113.81;5110943;28;20631;-75
2022/10/07 01:04:34;;;;;;;2.30;2.10;;;;;;;-143.84;70.30;45111.91;5110839;28;20437;-75
2022/10/07 01:07:01;;;;;;;2.53;2.33;;;;;;;-143.84;70.29;45102.38;5110773;28;20444;-75
2022/10/07 01:09:28;;;;;;;4.33;2.43;;;;;;;-143.84;70.09;45110.00;5110807;28;20498;-75
2022/10/07 01:12:04;;;;;;;3.47;2.80;;;;;;;-143.84;70.00;45119.53;5110941;28;20498;-75
2022/10/07 01:14:46;;;;;;;6.40;2.37;;;;;;;-143.84;69.86;45117.63;5110723;28;20458;-75
2022/10/07 01:17:21;;;;;;;2.33;2.23;;;;;;;-143.84;69.57;45121.44;5110653;28;20442;-75
2022/10/07 01:20:18;;;;;;;3.57;2.07;;;;;;;-143.84;69.79;45123.34;5110575;28;20940;-75
2022/10/07 01:22:54;;;;;;;2.33;2.23;;;;;;;-143.84;69.91;45102.38;5094745;28;20508;-75
2022/10/07 01:25:34;;;;;;;2.20;2.00;;;;;;;-143.84;69.98;45125.22;5110286;28;20446;-75
2022/10/07 01:28:07;;;;;;;2.50;2.03;;;;;;;-143.84;69.65;45129.03;5110227;28;20500;-75
2022/10/07 01:30:40;;;;;;;4.60;2.23;;;;;;;-143.84;69.54;45123.34;5110229;28;20523;-75
2022/10/07 01:33:14;;;;;;;6.00;2.43;;;;;;;-143.84;69.53;45113.81;5110214;28;20449;-75
2022/10/07 01:35:45;;;;;;;2.53;2.33;;;;;;;-143.84;69.77;45106.19;5110214;28;20431;-75
2022/10/07 01:38:16;;;;;;;5.20;2.30;;;;;;;-143.84;70.00;45106.19;5109384;28;20449;-75
2022/10/07 01:40:47;;;;;;;3.83;2.90;;;;;;;-143.84;69.94;45111.91;5109873;28;20438;-75
2022/10/07 01:43:19;;;;;;;2.70;2.50;;;;;;;-143.84;70.22;45104.28;5109854;28;20547;-75
2022/10/07 01:45:47;;;;;;;2.90;2.13;;;;;;;-143.84;70.61;45115.72;5109896;28;20437;-75
2022/10/07 01:48:15;;;;;;;4.80;2.70;;;;;;;-143.84;70.88;45129.03;5109957;28;20478;-75
2022/10/07 01:50:42;;;;;;;5.80;2.63;;;;;;;-143.84;70.88;45100.47;5109814;28;20502;-75
2022/10/07 01:53:26;;;;;;;2.53;2.30;;;;;;;-143.84;71.49;45111.91;5109799;28;21187;-75
2022/10/07 01:56:09;;;;;;;2.33;2.20;;;;;;;-143.84;71.48;45108.09;5109799;28;20499;-75
2022/10/07 01:58:58;;;;;;;2.30;2.10;;;;;;;-143.84;71.49;45089.06;5110043;28;20484;-75
2022/10/07 02:01:34;;;;;;;6.10;2.73;;;;;;;-143.84;71.42;45129.03;5109792;28;20436;-75
2022/10/07 02:04:29;;;;;;;2.60;2.40;;;;;;;-143.84;71.42;45123.34;5109840;28;20494;-75
2022/10/07 02:07:07;;;;;;;2.30;2.10;;;;;;;-143.84;71.58;45136.66;5109922;28;20872;-75
2022/10/07 02:09:40;;;;;;;5.50;1.80;;;;;;;-143.84;71.65;45111.91;5109689;28;20526;-75
2022/10/07 02:12:15;;;;;;;4.27;2.47;;;;;;;-143.84;71.52;45136.66;5109869;28;20442;-75
2022/10/07 02:14:51;;;;;;;2.50;2.20;;;;;;;-143.84;71.79;45090.97;5109644;28;20451;-75
2022/10/07 02:17:20;;;;;;;2.57;2.37;;;;;;;-143.84;71.65;45125.22;5109432;28;20442;-75
2022/10/07 02:19:52;;;;;;;4.80;2.30;;;;;;;-143.84;71.68;45140.47;5108744;28;20446;-75
2022/10/07 02:22:21;;;;;;;2.37;2.17;;;;;;;-143.84;72.12;45127.13;5109226;28;20867;-75
2022/10/07 02:24:53;;;;;;;2.73;2.40;;;;;;;-143.84;72.06;45127.13;5108560;28;20466;-75
2022/10/07 02:27:25;;;;;;;2.97;2.77;;;;;;;-143.84;72.22;45129.03;5108959;28;20442;-75
2022/10/07 02:29:59;;;;;;;5.80;2.60;;;;;;;-143.84;72.38;45102.38;5109356;28;20440;-74
2022/10/07 02:32:28;;;;;;;4.00;2.77;;;;;;;-143.84;72.27;45108.09;5109391;28;20444;-75
2022/10/07 02:35:02;;;;;;;8.03;2.17;;;;;;;-143.84;72.19;45094.78;5109534;28;20434;-75
2022/10/07 02:37:35;;;;;;;2.40;2.20;;;;;;;-143.84;72.20;45110.00;5109614;28;20464;-75
2022/10/07 02:40:04;;;;;;;3.87;2.27;;;;;;;-143.84;72.33;45104.28;5109313;28;20828;-75
2022/10/07 02:42:38;;;;;;;3.93;2.63;;;;;;;-143.84;72.00;45100.47;5109166;28;21044;-75
2022/10/07 02:45:15;;;;;;;6.47;2.23;;;;;;;-143.84;72.08;45100.47;5109207;28;20989;-75
2022/10/07 02:47:48;;;;;;;2.53;2.40;;;;;;;-143.84;72.28;45094.78;5109237;28;20437;-75
2022/10/07 02:50:21;;;;;;;2.20;2.10;;;;;;;-143.84;72.57;45106.19;5111086;28;20460;-75
2022/10/07 02:52:49;;;;;;;8.47;2.70;;;;;;;-143.84;72.36;45142.38;5113302;28;20438;-75
2022/10/07 02:55:22;;;;;;;2.63;2.50;;;;;;;-143.84;72.39;45108.09;5113491;28;20484;-75
2022/10/07 02:57:53;;;;;;;2.60;2.20;;;;;;;-143.84;72.69;45132.84;5113532;28;20759;-75
2022/10/07 03:00:23;;;;;;;2.47;2.27;;;;;;;-143.84;72.77;45110.00;5113310;28;20443;-75
2022/10/07 03:02:53;;;;;;;3.63;2.67;;;;;;;-143.84;72.98;45119.53;5113295;28;20440;-75
2022/10/07 03:05:21;;;;;;;3.37;3.10;;;;;;;-143.84;73.05;45110.00;5113068;28;20866;-75
2022/10/07 03:07:51;;;;;;;5.83;2.60;;;;;;;-143.84;73.19;45136.66;5113057;28;20447;-75
2022/10/07 03:10:18;;;;;;;5.73;2.93;;;;;;;-143.84;73.13;45108.09;5113110;28;20552;-75
2022/10/07 03:12:45;;;;;;;5.13;2.30;;;;;;;-143.84;73.19;45142.38;5113161;28;20492;-75
2022/10/07 03:15:13;;;;;;;2.43;2.17;;;;;;;-143.84;73.36;45121.44;5112782;28;20438;-75
2022/10/07 03:17:41;;;;;;;2.57;2.47;;;;;;;-143.84;73.45;45108.09;5113010;28;20453;-75
2022/10/07 03:20:10;;;;;;;2.43;2.33;;;;;;;-143.84;72.71;45125.22;5112897;28;20449;-75
2022/10/07 03:22:37;;;;;;;6.13;2.87;;;;;;;-143.84;72.17;45132.84;5112920;28;20446;-75
2022/10/07 03:25:05;;;;;;;2.60;2.40;;;;;;;-143.84;71.76;45136.66;5113006;28;20506;-75
2022/10/07 03:27:33;;;;;;;2.23;2.10;;;;;;;-143.84;71.59;45121.44;5112536;28;20443;-75
2022/10/07 03:30:00;;;;;;;3.00;2.27;;;;;;;-143.84;71.37;45127.13;5112589;28;20478;-75
2022/10/07 03:32:28;;;;;;;4.07;2.20;;;;;;;-143.84;71.29;45106.19;5110385;27;20446;-75
2022/10/07 03:34:57;;;;;;;2.97;2.77;;;;;;;-143.84;71.35;45110.00;5112631;28;20550;-75
2022/10/07 03:37:24;;;;;;;5.20;2.57;;;;;;;-143.84;71.72;45110.00;5105818;28;20443;-75
2022/10/07 03:39:52;;;;;;;2.80;2.60;;;;;;;-143.84;72.19;45123.34;5113204;27;21035;-75
2022/10/07 03:42:19;;;;;;;3.17;2.47;;;;;;;-143.84;72.45;45125.22;5126558;27;20470;-75
2022/10/07 03:44:48;;;;;;;4.23;2.40;;;;;;;-143.84;72.84;45123.34;5126881;27;20464;-75
2022/10/07 03:47:16;;;;;;;3.10;2.20;;;;;;;-143.84;72.45;45132.84;5110568;28;20542;-75
2022/10/07 03:49:44;;;;;;;11.70;2.50;;;;;;;-143.84;72.17;45113.81;5112168;28;20938;-76
2022/10/07 03:52:12;;;;;;;3.83;2.57;;;;;;;-143.84;72.00;45127.13;5110347;28;20459;-75
2022/10/07 03:54:40;;;;;;;7.23;2.30;;;;;;;-143.84;71.99;45138.56;5112249;28;20446;-75
2022/10/07 03:57:48;;;;;;;5.37;2.40;;;;;;;-143.84;72.33;45119.53;5111419;28;20948;-75
2022/10/07 03:59:54;;;;;;;2.70;2.17;;;;;;;-143.84;72.42;45108.09;5111000;28;20436;-75
2022/10/07 04:02:22;;;;;;;2.47;2.27;;;;;;;-143.84;72.62;45108.09;5111138;28;20446;-75
2022/10/07 04:04:51;;;;;;;2.93;2.20;;;;;;;-143.84;72.42;45127.13;5111927;28;20445;-75
2022/10/07 04:07:21;;;;;;;2.60;2.30;;;;;;;-143.84;72.60;45098.56;5091145;28;20470;-76
2022/10/07 04:09:49;;;;;;;8.43;3.00;;;;;;;-143.84;72.33;45121.44;5091469;28;20479;-77
2022/10/07 04:12:16;;;;;;;7.77;2.60;;;;;;;-143.84;72.62;45098.56;5091485;28;20501;-75
2022/10/07 04:14:43;;;;;;;2.77;2.57;;;;;;;-143.84;72.63;45123.34;5091394;28;20439;-76
2022/10/07 04:17:10;;;;;;;2.70;2.50;;;;;;;-143.84;73.08;45100.47;5091537;28;20972;-76
2022/10/07 04:19:38;;;;;;;4.77;2.50;;;;;;;-143.84;73.15;45119.53;5091955;28;20474;-75
2022/10/07 04:22:05;;;;;;;2.23;2.13;;;;;;;-143.84;73.07;45130.94;5124144;27;20832;-75
2022/10/07 04:24:34;;;;;;;4.60;2.70;;;;;;;-143.84;73.13;45123.34;5133297;27;20518;-73
2022/10/07 04:27:03;;;;;;;3.97;2.50;;;;;;;-143.84;73.00;45123.34;5128255;27;20487;-74
2022/10/07 04:29:31;;;;;;;4.20;2.30;;;;;;;-143.84;72.66;45125.22;5098153;28;20480;-73
2022/10/07 04:31:58;;;;;;;2.93;2.50;;;;;;;-143.84;72.36;45119.53;5107912;28;20504;-76
2022/10/07 04:34:25;;;;;;;3.07;2.40;;;;;;;-143.84;72.16;45106.19;5110896;28;20507;-76
2022/10/07 04:36:53;;;;;;;3.20;2.90;;;;;;;-143.84;71.68;45130.94;5111801;28;20940;-75
2022/10/07 04:39:20;;;;;;;2.87;2.50;;;;;;;-143.84;71.57;45130.94;5111169;28;20545;-73
2022/10/07 04:41:50;;;;;;;2.67;2.50;;;;;;;-143.84;70.86;45119.53;5111186;28;20498;-76
2022/10/07 04:44:17;;;;;;;4.20;2.67;;;;;;;-143.84;71.17;45117.63;5111576;28;20434;-76
2022/10/07 04:53:27;;;;;;;5.00;2.63;;;;;;;-143.84;70.53;45111.91;5111765;28;20478;-76
2022/10/07 04:55:55;;;;;;;2.23;2.03;;;;;;;-143.84;70.26;45113.81;5110782;28;21022;-76
2022/10/07 04:58:23;;;;;;;8.67;2.70;;;;;;;-143.84;69.84;45104.28;5110724;28;20528;-76
2022/10/07 05:00:52;;;;;;;4.13;3.43;;;;;;;-143.84;69.66;45079.53;5111068;28;20506;-76
2022/10/07 05:03:21;;;;;;;3.60;2.17;;;;;;;-143.84;69.71;45110.00;5110566;28;20448;-76
2022/10/07 05:05:50;;;;;;;5.07;2.47;;;;;;;-143.84;70.16;45121.44;5111040;28;20780;-76
2022/10/07 05:08:19;;;;;;;2.50;2.17;;;;;;;-143.84;70.16;45117.63;5110715;28;20446;-76
2022/10/07 05:10:46;;;;;;;2.60;2.40;;;;;;;-143.84;70.42;45085.25;5111207;28;20480;-76
2022/10/07 05:13:16;;;;;;;4.63;2.43;;;;;;;-143.84;70.07;45117.63;5110569;28;20444;-76
2022/10/07 05:15:53;;;;;;;2.00;1.80;;;;;;;-143.84;69.72;45100.47;5110815;28;20522;-76
2022/10/07 05:18:21;;;;;;;6.40;2.13;;;;;;;-143.84;69.26;45119.53;5110381;28;20446;-75
2022/10/07 05:20:49;;;;;;;4.00;1.93;;;;;;;-143.84;68.93;45117.63;5110461;28;20928;-76
2022/10/07 05:23:18;;;;;;;2.60;2.27;;;;;;;-143.84;68.66;45089.06;5110170;28;20434;-76
2022/10/07 05:25:46;;;;;;;3.93;1.90;;;;;;;-143.84;66.95;45077.63;5109982;28;20435;-76
2022/10/07 05:28:15;;;;;;;2.10;1.60;;;;;;;-143.84;65.40;45079.53;5109749;28;20445;-76
2022/10/07 05:30:42;;;;;;;9.97;2.60;;;;;;;-143.84;63.60;45075.72;5109236;28;20473;-76
2022/10/07 05:33:11;;;;;;;3.77;2.20;;;;;;;-143.84;61.89;45083.34;5110589;28;21141;-75
2022/10/07 05:35:38;;;;;;;3.53;2.10;;;;;;;-143.84;60.14;45075.72;5110004;28;20446;-75
2022/10/07 05:38:05;;;;;;;2.40;1.70;;;;;;;-143.84;58.56;45071.91;5109741;28;20910;-75
2022/10/07 05:40:32;;;;;;;4.13;1.80;;;;;;;-143.84;57.78;45071.91;5109833;28;20451;-75
2022/10/07 05:43:00;;;;;;;5.83;2.03;;;;;;;-143.84;55.86;45054.78;5109749;28;20482;-75
2022/10/07 05:45:30;;;;;;;4.33;1.63;;;;;;;-143.84;54.38;45075.72;5109820;28;20442;-75
2022/10/07 05:47:57;;;;;;;8.43;2.23;;;;;;;-143.84;53.86;45068.13;5109620;28;20438;-75
2022/10/07 05:50:26;;;;;;;5.50;1.93;;;;;;;-143.84;52.86;45071.91;5109331;28;20884;-75
2022/10/07 05:52:53;;;;;;;2.77;1.60;;;;;;;-143.84;52.66;45058.59;5109728;28;20439;-75
2022/10/07 05:55:20;;;;;;;1.70;1.60;;;;;;;-143.84;52.44;45050.97;5109833;28;20439;-75
2022/10/07 05:57:47;;;;;;;2.17;1.97;;;;;;;-143.84;51.95;45068.13;5109618;28;20443;-75
2022/10/07 06:00:15;;;;;;;1.90;1.80;;;;;;;-143.84;51.86;45045.25;5109478;28;20484;-75
2022/10/07 06:02:43;;;;;;;3.23;2.17;;;;;;;-143.84;51.98;45081.44;5109078;28;20447;-75
2022/10/07 06:05:10;;;;;;;2.13;1.80;;;;;;;-143.84;51.54;45047.16;5109398;28;20450;-75
2022/10/07 06:07:38;;;;;;;4.47;1.90;;;;;;;-143.84;50.98;45047.16;5109323;28;20940;-75
2022/10/07 06:15:43;;;;;;;2.13;1.63;;;;;;;-143.84;51.25;45058.59;5095702;28;20447;-75
2022/10/07 06:18:10;;;;;;;2.33;1.70;;;;;;;-143.84;51.28;45043.34;5109081;28;20442;-75
2022/10/07 06:20:38;;;;;;;2.63;1.97;;;;;;;-143.84;49.90;45052.88;5109253;28;20435;-75
2022/10/07 06:23:06;;;;;;;3.90;1.90;;;;;;;-143.84;49.67;45047.16;5109212;28;20499;-75
2022/10/07 06:25:35;;;;;;;2.67;1.83;;;;;;;-143.84;48.17;45052.88;5108897;28;20462;-75
2022/10/07 06:28:02;;;;;;;15.37;2.37;;;;;;;-143.84;46.72;45060.50;5108904;28;20484;-75
2022/10/07 06:30:29;;;;;;;2.03;1.80;;;;;;;-143.84;47.79;45041.44;5109220;28;21263;-75
2022/10/07 06:32:57;;;;;;;3.30;1.93;;;;;;;-143.84;47.77;45047.16;5109157;28;20929;-75
2022/10/07 06:35:24;;;;;;;2.13;1.93;;;;;;;-143.84;46.33;45037.66;5109035;28;20439;-75
2022/10/07 06:37:51;;;;;;;5.33;1.90;;;;;;;-143.84;45.83;45050.97;5109289;28;20519;-75
2022/10/07 06:40:20;;;;;;;2.43;1.93;;;;;;;-143.84;45.17;45060.50;5109138;28;20435;-75
2022/10/07 06:42:47;;;;;;;2.37;1.83;;;;;;;-143.84;45.07;45052.88;5108871;28;20482;-75
2022/10/07 06:45:14;;;;;;;3.23;1.80;;;;;;;-143.84;44.50;45037.66;5108972;28;20946;-75
2022/10/07 06:47:42;;;;;;;2.07;1.63;;;;;;;-143.84;44.17;45026.22;5109152;28;20439;-75
2022/10/07 06:50:09;;;;;;;10.13;1.97;;;;;;;-143.84;44.41;45039.53;5109228;28;20474;-75
2022/10/07 06:52:37;;;;;;;1.90;1.80;;;;;;;-143.84;43.68;45024.31;5109175;28;20450;-75
2022/10/07 06:55:04;;;;;;;1.83;1.73;;;;;;;-143.84;43.84;45056.69;5109193;28;20767;-75
2022/10/07 06:57:33;;;;;;;3.70;2.00;;;;;;;-143.84;44.59;45049.06;5109008;28;20500;-75
2022/10/07 07:00:01;;;;;;;8.60;2.20;;;;;;;-143.84;44.84;45028.13;5109062;28;20789;-75
2022/10/07 07:02:29;;;;;;;3.87;2.10;;;;;;;-143.84;45.29;45028.13;5109109;28;20462;-75
2022/10/07 07:04:56;;;;;;;2.27;2.07;;;;;;;-143.84;44.75;45068.13;5108930;28;20466;-75
2022/10/07 07:07:24;;;;;;;9.03;2.07;;;;;;;-143.84;44.58;45062.41;5108913;28;20441;-75
2022/10/07 07:09:51;;;;;;;6.67;2.27;;;;;;;-143.84;44.30;45071.91;5108703;28;20489;-75
2022/10/07 07:12:18;;;;;;;6.13;1.93;;;;;;;-143.84;44.44;45039.53;5108677;28;20447;-75
2022/10/07 07:14:47;;;;;;;1.97;1.57;;;;;;;-143.84;44.17;45062.41;5108858;28;20439;-75
2022/10/07 07:17:14;;;;;;;2.70;2.07;;;;;;;-143.84;44.32;45056.69;5108925;28;20438;-75
2022/10/07 07:19:41;;;;;;;3.60;1.90;;;;;;;-143.84;44.68;45033.84;5108369;28;20504;-75
2022/10/07 07:22:08;;;;;;;9.13;2.33;;;;;;;-143.84;44.89;45064.31;5108688;28;20471;-75
2022/10/07 07:24:36;;;;;;;5.67;1.93;;;;;;;-143.84;45.03;45028.13;5108953;28;20988;-75
2022/10/07 07:27:03;;;;;;;5.80;1.93;;;;;;;-143.84;44.02;45047.16;5108512;28;20439;-75
2022/10/07 07:29:30;;;;;;;7.13;1.87;;;;;;;-143.84;44.28;45035.75;5108630;28;21067;-75
2022/10/07 07:32:01;;;;;;;3.10;1.87;;;;;;;-143.84;42.68;45066.22;5108516;28;20439;-75
2022/10/07 07:34:29;;;;;;;3.40;1.70;;;;;;;-143.84;43.92;45026.22;5108582;28;20523;-75
2022/10/07 07:36:56;;;;;;;2.70;1.97;;;;;;;-143.84;43.38;45050.97;5109463;28;20446;-75
2022/10/07 07:39:23;;;;;;;5.03;2.07;;;;;;;-143.84;44.01;45031.94;5112348;28;20483;-75
2022/10/07 07:41:50;;;;;;;2.50;1.73;;;;;;;-143.84;42.76;45060.50;5112017;28;20438;-75
2022/10/07 07:44:19;;;;;;;2.40;1.83;;;;;;;-143.84;41.19;45062.41;5112429;28;20423;-75
2022/10/07 07:46:50;;;;;;;4.63;1.70;;;;;;;-143.84;41.64;45033.84;5112173;28;21038;-75
2022/10/07 07:49:20;;;;;;;6.00;1.80;;;;;;;-143.84;41.17;45049.06;5111781;28;20447;-75
2022/10/07 07:51:47;;;;;;;3.13;2.10;;;;;;;-143.84;41.71;45052.88;5112038;28;20443;-75
2022/10/07 07:54:15;;;;;;;6.93;2.03;;;;;;;-143.84;40.86;45026.22;5112124;28;20472;-75
2022/10/07 07:56:42;;;;;;;3.53;2.10;;;;;;;-143.84;41.60;45033.84;5112168;28;20492;-75
2022/10/07 07:59:10;;;;;;;1.87;1.73;;;;;;;-143.84;40.84;45030.03;5112284;28;20508;-75
2022/10/07 08:01:37;;;;;;;3.77;1.67;;;;;;;-143.84;40.51;45020.50;5111779;28;20510;-75
2022/10/07 08:04:05;;;;;;;2.77;2.07;;;;;;;-143.84;39.63;45024.31;5111677;28;20431;-75
2022/10/07 08:06:33;;;;;;;12.23;1.77;;;;;;;-143.84;38.80;44997.66;5111840;28;20442;-75
2022/10/07 08:09:01;;;;;;;6.60;2.40;;;;;;;-143.84;38.10;45041.44;5111905;28;20519;-76
2022/10/07 08:11:28;;;;;;;3.70;1.90;;;;;;;-143.84;37.88;44999.56;5111687;28;20495;-75
2022/10/07 08:13:56;;;;;;;10.10;2.00;;;;;;;-143.84;37.75;45035.75;5111724;28;20508;-75
2022/10/07 08:16:25;;;;;;;6.03;1.77;;;;;;;-143.84;38.12;45010.97;5111617;28;20447;-75
2022/10/07 08:18:54;;;;;;;4.80;1.60;;;;;;;-143.84;37.78;45033.84;5111539;28;20872;-75
2022/10/07 08:21:23;;;;;;;15.80;1.70;;;;;;;-143.84;38.50;44997.66;5111013;28;20450;-75
2022/10/07 08:23:55;;;;;;;3.77;1.67;;;;;;;-143.84;36.33;45022.41;5111075;28;20468;-75
2022/10/07 08:26:22;;;;;;;2.77;1.47;;;;;;;-143.84;37.35;45014.78;5111008;28;20447;-75
2022/10/07 08:28:51;;;;;;;6.53;2.17;;;;;;;-143.84;37.42;45030.03;5110729;28;20446;-75
2022/10/07 08:31:19;;;;;;;3.20;2.00;;;;;;;-143.84;36.67;45045.25;5110431;28;21156;-75
2022/10/07 08:33:48;;;;;;;4.70;1.83;;;;;;;-143.84;36.39;44988.13;5110714;28;20443;-75
2022/10/07 08:36:17;;;;;;;3.40;1.90;;;;;;;-143.84;36.72;45047.16;5110180;28;20438;-75
2022/10/07 08:38:46;;;;;;;3.50;2.13;;;;;;;-143.84;36.39;45005.28;5110880;28;20435;-75
2022/10/07 08:41:31;;;;;;;2.60;1.70;;;;;;;-143.84;36.27;45010.97;5111110;28;20443;-75
2022/10/07 08:44:06;;;;;;;13.07;2.20;;;;;;;-143.84;36.80;45047.16;5110759;28;20475;-75
2022/10/07 08:46:37;;;;;;;5.13;2.10;;;;;;;-143.84;36.89;45010.97;5111108;28;20833;-75
2022/10/07 08:49:11;;;;;;;3.57;2.60;;;;;;;-143.84;36.20;45035.75;5110702;28;20513;-75
2022/10/07 08:51:47;;;;;;;4.73;3.17;;;;;;;-143.84;36.15;45022.41;5110681;28;20513;-75
2022/10/07 08:54:16;;;;;;;2.83;1.90;;;;;;;-143.84;35.40;44986.22;5111103;28;20439;-75
2022/10/07 08:56:45;;;;;;;4.00;2.27;;;;;;;-143.84;35.28;45014.78;5110947;28;20490;-75
2022/10/07 08:59:20;;;;;;;2.73;2.10;;;;;;;-143.84;35.50;44999.56;5110644;28;20480;-75
2022/10/07 09:02:01;;;;;;;2.47;2.20;;;;;;;-143.84;34.55;45014.78;5110586;28;20458;-75
2022/10/07 09:04:42;;;;;;;7.90;2.27;;;;;;;-143.84;35.11;44984.31;5110604;28;20442;-75
2022/10/07 09:07:14;;;;;;;3.93;1.97;;;;;;;-143.84;35.56;45005.28;5110873;28;20457;-75
2022/10/07 09:09:47;;;;;;;2.37;1.73;;;;;;;-143.84;34.11;45003.38;5110451;28;20497;-75
2022/10/07 09:12:21;;;;;;;7.03;2.07;;;;;;;-143.84;34.37;44986.22;5110373;28;20459;-75
2022/10/07 09:14:53;;;;;;;2.80;1.90;;;;;;;-143.84;33.56;44991.94;5110270;28;20446;-75
2022/10/07 09:17:24;;;;;;;2.57;2.33;;;;;;;-143.84;33.61;44993.84;5110296;28;20443;-75
2022/10/07 09:19:57;;;;;;;3.00;2.40;;;;;;;-143.84;34.17;45005.28;5110398;28;20435;-75
2022/10/07 09:22:31;;;;;;;5.67;2.10;;;;;;;-143.84;34.69;44999.56;5110517;28;20446;-75
2022/10/07 09:25:06;;;;;;;6.30;2.20;;;;;;;-143.84;33.47;44995.75;5110235;28;20438;-75
2022/10/07 09:27:35;;;;;;;6.13;1.80;;;;;;;-143.84;33.54;44976.72;5110096;28;20443;-75
2022/10/07 09:30:02;;;;;;;4.23;2.13;;;;;;;-143.84;33.35;44999.56;5110066;28;20531;-75
2022/10/07 09:32:30;;;;;;;6.10;2.40;;;;;;;-143.84;34.08;44991.94;5109991;28;20443;-75
2022/10/07 09:34:57;;;;;;;3.43;1.93;;;;;;;-143.84;32.46;45005.28;5110009;28;20443;-75
2022/10/07 09:37:26;;;;;;;8.73;2.33;;;;;;;-143.84;32.21;44969.09;5110074;28;20492;-75
2022/10/07 09:39:56;;;;;;;5.73;2.10;;;;;;;-143.84;31.99;44972.91;5109947;28;20484;-75
2022/10/07 09:42:34;;;;;;;3.10;1.97;;;;;;;-143.84;32.70;44986.22;5109767;28;20517;-75
2022/10/07 09:45:18;;;;;;;5.43;2.23;;;;;;;-143.84;33.28;44965.28;5109966;28;20427;-75
2022/10/07 09:47:51;;;;;;;2.77;2.00;;;;;;;-143.84;32.23;44969.09;5109762;28;20513;-75
2022/10/07 09:50:35;;;;;;;4.67;2.30;;;;;;;-143.84;32.15;44984.31;5109958;28;20478;-75
2022/10/07 09:53:04;;;;;;;3.73;2.40;;;;;;;-143.84;32.09;44972.91;5108419;28;20449;-75
2022/10/07 09:55:37;;;;;;;3.97;2.00;;;;;;;-143.84;32.71;44988.13;5109717;28;20442;-75
2022/10/07 09:58:06;;;;;;;4.47;1.90;;;;;;;-143.84;31.86;44988.13;5109390;28;20431;-75
2022/10/07 10:00:43;;;;;;;2.40;1.73;;;;;;;-143.84;31.78;44972.91;5109117;28;20446;-75
2022/10/07 10:03:11;;;;;;;4.10;2.00;;;;;;;-143.84;32.04;44988.13;5109636;28;20526;-75
2022/10/07 10:05:40;;;;;;;3.97;1.80;;;;;;;-143.84;31.87;45016.69;5109702;28;20458;-75
2022/10/07 10:08:21;;;;;;;6.10;1.80;;;;;;;-143.84;32.21;44976.72;5109576;28;20439;-75
2022/10/07 10:10:54;;;;;;;7.03;2.00;;;;;;;-143.84;32.68;44988.13;5109342;28;20487;-75
2022/10/07 10:13:31;;;;;;;3.73;1.60;;;;;;;-143.84;32.35;44965.28;5109516;28;20439;-75
2022/10/07 10:16:01;;;;;;;7.07;1.90;;;;;;;-143.84;32.29;44982.41;5109647;28;20439;-75
2022/10/07 10:18:39;;;;;;;3.70;1.90;;;;;;;-143.84;31.97;44990.03;5109335;28;20448;-75
2022/10/07 10:21:28;;;;;;;3.57;1.80;;;;;;;-143.84;31.77;44978.63;5109366;28;20450;-75
2022/10/07 10:23:58;;;;;;;2.00;1.90;;;;;;;-143.84;32.28;44988.13;5109280;28;21056;-75
2022/10/07 10:26:58;;;;;;;5.00;2.40;;;;;;;-143.84;32.52;45001.47;5109341;28;20508;-75
2022/10/07 10:29:50;;;;;;;2.00;1.80;;;;;;;-143.84;32.23;44961.47;5109313;28;20588;-75
2022/10/07 10:32:46;;;;;;;6.00;2.50;;;;;;;-143.84;32.09;44965.28;5108940;28;20479;-75
2022/10/07 10:35:19;;;;;;;9.17;1.83;;;;;;;-143.84;32.06;44997.66;5109310;28;20500;-75
2022/10/07 10:38:04;;;;;;;6.73;1.90;;;;;;;-143.84;32.26;44959.56;5109238;28;20514;-76
2022/10/07 10:40:38;;;;;;;3.03;2.03;;;;;;;-143.84;33.73;45007.19;5109421;28;20474;-75
2022/10/07 10:43:21;;;;;;;3.40;2.40;;;;;;;-143.84;32.23;44991.94;5109172;28;20490;-75
2022/10/07 10:46:00;;;;;;;7.17;2.70;;;;;;;-143.84;31.83;44965.28;5108998;28;20435;-75
2022/10/07 10:48:38;;;;;;;3.90;1.83;;;;;;;-143.84;31.99;44980.53;5108990;28;20929;-75
2022/10/07 10:51:22;;;;;;;3.13;2.50;;;;;;;-143.84;31.76;44976.72;5109197;28;20547;-75
2022/10/07 10:53:58;;;;;;;3.23;2.03;;;;;;;-143.84;32.68;44988.13;5109069;28;20450;-75
2022/10/07 10:56:38;;;;;;;2.50;1.80;;;;;;;-143.84;32.84;44995.75;5108970;28;20435;-75
2022/10/07 10:59:26;;;;;;;5.80;2.57;;;;;;;-143.84;32.60;44999.56;5109269;28;20889;-75
2022/10/07 11:02:08;;;;;;;9.00;2.23;;;;;;;-143.84;32.75;44988.13;5109046;28;20438;-75
2022/10/07 11:04:45;;;;;;;3.00;2.27;;;;;;;-143.84;33.48;45012.88;5108897;28;20494;-75
2022/10/07 11:07:20;;;;;;;4.60;1.73;;;;;;;-143.84;33.36;44995.75;5108566;28;20520;-75
2022/10/07 11:09:51;;;;;;;4.23;1.60;;;;;;;-143.84;33.97;45005.28;5108787;28;20452;-75
2022/10/07 11:12:25;;;;;;;4.50;1.70;;;;;;;-143.84;34.96;44991.94;5112299;28;20489;-75
2022/10/07 11:14:57;;;;;;;2.03;1.60;;;;;;;-143.84;36.53;44991.94;5112540;28;20447;-75
2022/10/07 11:17:30;;;;;;;1.83;1.67;;;;;;;-143.84;38.21;45003.38;5112841;28;20443;-75
2022/10/07 11:20:07;;;;;;;4.17;1.63;;;;;;;-143.84;38.16;44991.94;5112687;28;20852;-75
2022/10/07 11:22:39;;;;;;;8.47;1.57;;;;;;;-143.84;39.11;44991.94;5112513;28;20951;-75
2022/10/07 11:25:17;;;;;;;6.20;1.83;;;;;;;-143.84;39.42;45030.03;5112569;28;20488;-75
2022/10/07 11:27:48;;;;;;;5.07;2.10;;;;;;;-143.84;39.04;45001.47;5112449;28;20512;-75
2022/10/07 11:30:19;;;;;;;2.10;1.50;;;;;;;-143.84;39.32;44965.28;5112152;28;20499;-75
2022/10/07 11:32:54;;;;;;;2.63;1.63;;;;;;;-143.84;39.86;45009.09;5112007;28;20449;-75
2022/10/07 11:35:30;;;;;;;10.23;1.80;;;;;;;-143.84;40.60;45003.38;5111946;28;20522;-75
2022/10/07 11:38:03;;;;;;;1.93;1.50;;;;;;;-143.84;40.82;45005.28;5111516;28;20556;-75
2022/10/07 11:40:32;;;;;;;6.60;2.00;;;;;;;-143.84;40.16;44990.03;5111241;28;20442;-75
2022/10/07 11:43:06;;;;;;;8.93;2.20;;;;;;;-143.84;39.46;45009.09;5112011;28;20539;-75
2022/10/07 11:45:43;;;;;;;4.13;2.00;;;;;;;-143.84;40.03;45003.38;5112731;28;20450;-75